Time,TemperatureF,DewpointF,PressureIn,WindDirection,WindDirectionDegrees,WindSpeedMPH,WindSpeedGustMPH,Humidity,HourlyPrecipIn,Conditions,Clouds,dailyrainin,SoftwareType,DateUTC
2013-11-29 00:12:00,9.7,8.0,30.42,ENE,67,0.0,0.0,91,0.00,,,0.00,weatherlink.com 1.10,2013-11-29 05:12:00,
2013-11-29 00:27:00,9.7,8.0,30.42,ENE,67,0.0,0.0,91,0.00,,,0.00,weatherlink.com 1.10,2013-11-29 05:27:00,
2013-11-29 00:42:00,9.7,8.0,30.43,ENE,67,0.0,0.0,92,0.00,,,0.00,weatherlink.com 1.10,2013-11-29 05:42:00,
2013-11-29 00:57:00,9.8,8.0,30.43,ENE,67,0.0,0.0,91,0.00,,,0.00,weatherlink.com 1.10,2013-11-29 05:57:00,
2013-11-29 01:13:00,10.4,9.0,30.44,ENE,67,0.0,0.0,92,0.00,,,0.00,weatherlink.com 1.10,2013-11-29 06:13:00,
2013-11-29 01:28:00,9.9,8.0,30.44,ENE,67,0.0,0.0,91,0.00,,,0.00,weatherlink.com 1.10,2013-11-29 06:28:00,
2013-11-29 01:43:00,9.9,8.0,30.45,North,-999,-999.0,-999.0,91,0.00,,,0.00,weatherlink.com 1.10,2013-11-29 06:43:00,
2013-11-29 01:58:00,9.9,8.0,30.45,North,-999,-999.0,-999.0,91,0.00,,,0.00,weatherlink.com 1.10,2013-11-29 06:58:00,
2013-11-29 02:13:00,9.9,8.0,30.46,North,-999,-999.0,-999.0,91,0.00,,,0.00,weatherlink.com 1.10,2013-11-29 07:13:00,
2013-11-29 02:28:00,9.9,8.0,30.46,North,-999,-999.0,-999.0,91,0.00,,,0.00,weatherlink.com 1.10,2013-11-29 07:28:00,
2013-11-29 02:43:00,9.9,8.0,30.46,North,-999,-999.0,-999.0,91,0.00,,,0.00,weatherlink.com 1.10,2013-11-29 07:43:00,
2013-11-29 02:58:00,9.9,8.0,30.47,North,-999,-999.0,-999.0,91,0.00,,,0.00,weatherlink.com 1.10,2013-11-29 07:58:00,
2013-11-29 03:13:00,9.9,8.0,30.47,North,-999,-999.0,-999.0,91,0.00,,,0.00,weatherlink.com 1.10,2013-11-29 08:13:00,
2013-11-29 03:28:00,9.9,8.0,30.47,North,-999,-999.0,-999.0,91,0.00,,,0.00,weatherlink.com 1.10,2013-11-29 08:28:00,
2013-11-29 03:43:00,9.9,8.0,30.47,North,-999,-999.0,-999.0,91,0.00,,,0.00,weatherlink.com 1.10,2013-11-29 08:43:00,
2013-11-29 03:58:00,9.9,8.0,30.48,North,-999,-999.0,-999.0,91,0.00,,,0.00,weatherlink.com 1.10,2013-11-29 08:58:00,
2013-11-29 04:13:00,9.9,8.0,30.48,North,-999,-999.0,-999.0,91,0.00,,,0.00,weatherlink.com 1.10,2013-11-29 09:13:00,
2013-11-29 04:28:00,9.9,8.0,30.49,North,-999,-999.0,-999.0,91,0.00,,,0.00,weatherlink.com 1.10,2013-11-29 09:28:00,
2013-11-29 04:43:00,9.9,8.0,30.49,North,-999,-999.0,-999.0,91,0.00,,,0.00,weatherlink.com 1.10,2013-11-29 09:43:00,
2013-11-29 04:59:00,9.9,8.0,30.50,North,-999,-999.0,-999.0,91,0.00,,,0.00,weatherlink.com 1.10,2013-11-29 09:59:00,
2013-11-29 05:14:00,9.9,8.0,30.51,North,-999,-999.0,-999.0,91,0.00,,,0.00,weatherlink.com 1.10,2013-11-29 10:14:00,
2013-11-29 05:29:00,9.9,8.0,30.51,North,-999,-999.0,-999.0,91,0.00,,,0.00,weatherlink.com 1.10,2013-11-29 10:29:00,
2013-11-29 05:44:00,9.9,8.0,30.52,North,-999,-999.0,-999.0,91,0.00,,,0.00,weatherlink.com 1.10,2013-11-29 10:44:00,
2013-11-29 05:59:00,9.9,8.0,30.52,North,-999,-999.0,-999.0,91,0.00,,,0.00,weatherlink.com 1.10,2013-11-29 10:59:00,
2013-11-29 06:14:00,9.9,8.0,30.53,North,-999,-999.0,-999.0,91,0.00,,,0.00,weatherlink.com 1.10,2013-11-29 11:14:00,
2013-11-29 06:29:00,9.9,8.0,30.53,North,-999,-999.0,-999.0,91,0.00,,,0.00,weatherlink.com 1.10,2013-11-29 11:29:00,
2013-11-29 06:44:00,9.9,8.0,30.54,North,-999,-999.0,-999.0,91,0.00,,,0.00,weatherlink.com 1.10,2013-11-29 11:44:00,
2013-11-29 06:59:00,9.9,8.0,30.54,North,-999,-999.0,-999.0,91,0.00,,,0.00,weatherlink.com 1.10,2013-11-29 11:59:00,
2013-11-29 07:14:00,9.9,8.0,30.55,North,-999,-999.0,-999.0,91,0.00,,,0.00,weatherlink.com 1.10,2013-11-29 12:14:00,
2013-11-29 07:29:00,9.9,8.0,30.56,North,-999,-999.0,-999.0,91,0.00,,,0.00,weatherlink.com 1.10,2013-11-29 12:29:00,
2013-11-29 07:44:00,9.1,7.0,30.57,ENE,67,0.0,0.0,92,0.00,,,0.00,weatherlink.com 1.10,2013-11-29 12:44:00,
2013-11-29 07:59:00,11.9,9.0,30.58,South,169,0.0,0.0,88,0.00,,,0.00,weatherlink.com 1.10,2013-11-29 12:59:00,
2013-11-29 08:14:00,14.0,11.0,30.59,WSW,247,0.0,0.0,86,0.00,,,0.00,weatherlink.com 1.10,2013-11-29 13:14:00,
2013-11-29 08:30:00,16.0,11.0,30.59,SW,233,0.0,0.0,82,0.00,,,0.00,weatherlink.com 1.10,2013-11-29 13:30:00,
2013-11-29 08:45:00,14.8,10.0,30.60,ESE,111,0.0,0.0,81,0.00,,,0.00,weatherlink.com 1.10,2013-11-29 13:45:00,
2013-11-29 09:00:00,13.9,10.0,30.61,SSW,199,0.0,2.0,83,0.00,,,0.00,weatherlink.com 1.10,2013-11-29 14:00:00,
2013-11-29 09:15:00,15.2,11.0,30.61,SE,141,0.0,2.0,82,0.00,,,0.00,weatherlink.com 1.10,2013-11-29 14:15:00,
2013-11-29 09:30:00,15.2,11.0,30.62,SE,134,0.0,1.0,82,0.00,,,0.00,weatherlink.com 1.10,2013-11-29 14:30:00,
2013-11-29 09:45:00,14.8,10.0,30.62,NNE,16,0.0,1.0,81,0.00,,,0.00,weatherlink.com 1.10,2013-11-29 14:45:00,
2013-11-29 10:00:00,15.6,11.0,30.62,South,190,0.0,1.0,80,0.00,,,0.00,weatherlink.com 1.10,2013-11-29 15:00:00,
2013-11-29 10:15:00,15.9,11.0,30.62,South,187,0.0,2.0,79,0.00,,,0.00,weatherlink.com 1.10,2013-11-29 15:15:00,
2013-11-29 10:30:00,16.1,11.0,30.62,WSW,256,0.0,1.0,80,0.00,,,0.00,weatherlink.com 1.10,2013-11-29 15:30:00,
2013-11-29 10:45:00,16.5,11.0,30.62,South,169,0.0,1.0,78,0.00,,,0.00,weatherlink.com 1.10,2013-11-29 15:45:00,
2013-11-29 11:00:00,16.4,10.0,30.62,SSE,152,0.0,1.0,77,0.00,,,0.00,weatherlink.com 1.10,2013-11-29 16:00:00,
2013-11-29 11:15:00,15.4,9.0,30.62,South,180,0.0,1.0,76,0.00,,,0.00,weatherlink.com 1.10,2013-11-29 16:15:00,
2013-11-29 11:30:00,16.0,10.0,30.62,East,87,0.0,1.0,76,0.00,,,0.00,weatherlink.com 1.10,2013-11-29 16:30:00,
2013-11-29 11:45:00,16.0,9.0,30.63,East,82,0.0,2.0,75,0.00,,,0.00,weatherlink.com 1.10,2013-11-29 16:45:00,
2013-11-29 12:00:00,16.3,11.0,30.62,SE,146,0.0,1.0,78,0.00,,,0.00,weatherlink.com 1.10,2013-11-29 17:00:00,
2013-11-29 12:15:00,16.5,9.0,30.62,ESE,115,0.0,1.0,73,0.00,,,0.00,weatherlink.com 1.10,2013-11-29 17:15:00,
2013-11-29 12:30:00,16.8,10.0,30.62,ENE,77,0.0,2.0,74,0.00,,,0.00,weatherlink.com 1.10,2013-11-29 17:30:00,
2013-11-29 12:45:00,16.1,9.0,30.62,West,264,0.0,1.0,74,0.00,,,0.00,weatherlink.com 1.10,2013-11-29 17:45:00,
2013-11-29 13:00:00,16.0,9.0,30.62,SSE,160,0.0,3.0,74,0.00,,,0.00,weatherlink.com 1.10,2013-11-29 18:00:00,
2013-11-29 13:15:00,15.9,9.0,30.63,SE,146,0.0,0.0,73,0.00,,,0.00,weatherlink.com 1.10,2013-11-29 18:15:00,
2013-11-29 13:30:00,16.3,9.0,30.63,WNW,291,0.0,1.0,74,0.00,,,0.00,weatherlink.com 1.10,2013-11-29 18:30:00,
2013-11-29 13:45:00,16.5,10.0,30.63,ENE,64,1.0,1.0,76,0.00,,,0.00,weatherlink.com 1.10,2013-11-29 18:45:00,
2013-11-29 14:00:00,16.7,10.0,30.63,South,186,0.0,1.0,74,0.00,,,0.00,weatherlink.com 1.10,2013-11-29 19:00:00,
2013-11-29 14:16:00,17.1,10.0,30.63,North,360,0.0,1.0,72,0.00,,,0.00,weatherlink.com 1.10,2013-11-29 19:16:00,
2013-11-29 14:30:00,17.1,10.0,30.64,SW,219,0.0,1.0,72,0.00,,,0.00,weatherlink.com 1.10,2013-11-29 19:30:00,
2013-11-29 14:45:00,17.3,10.0,30.64,NE,48,0.0,1.0,73,0.00,,,0.00,weatherlink.com 1.10,2013-11-29 19:45:00,
2013-11-29 15:00:00,17.0,11.0,30.65,NW,324,0.0,1.0,77,0.00,,,0.00,weatherlink.com 1.10,2013-11-29 20:00:00,
2013-11-29 15:15:00,16.6,11.0,30.66,NW,325,0.0,0.0,79,0.00,,,0.00,weatherlink.com 1.10,2013-11-29 20:15:00,
2013-11-29 15:30:00,16.0,11.0,30.66,NW,325,0.0,0.0,80,0.00,,,0.00,weatherlink.com 1.10,2013-11-29 20:30:00,
2013-11-29 15:45:00,15.3,11.0,30.67,NW,324,0.0,0.0,83,0.00,,,0.00,weatherlink.com 1.10,2013-11-29 20:45:00,
2013-11-29 16:00:00,14.6,11.0,30.67,NW,326,0.0,0.0,84,0.00,,,0.00,weatherlink.com 1.10,2013-11-29 21:00:00,
2013-11-29 16:15:00,13.8,10.0,30.68,NW,324,0.0,0.0,85,0.00,,,0.00,weatherlink.com 1.10,2013-11-29 21:15:00,
2013-11-29 16:30:00,13.0,10.0,30.69,NW,324,0.0,0.0,86,0.00,,,0.00,weatherlink.com 1.10,2013-11-29 21:30:00,
2013-11-29 16:45:00,12.1,9.0,30.69,ENE,68,0.0,0.0,86,0.00,,,0.00,weatherlink.com 1.10,2013-11-29 21:45:00,
2013-11-29 17:00:00,11.5,9.0,30.70,ENE,69,0.0,0.0,88,0.00,,,0.00,weatherlink.com 1.10,2013-11-29 22:00:00,
2013-11-29 17:15:00,11.0,8.0,30.71,ENE,68,0.0,1.0,88,0.00,,,0.00,weatherlink.com 1.10,2013-11-29 22:15:00,
2013-11-29 17:30:00,10.4,8.0,30.71,ENE,68,0.0,0.0,89,0.00,,,0.00,weatherlink.com 1.10,2013-11-29 22:30:00,
2013-11-29 17:45:00,9.7,7.0,30.72,ENE,69,0.0,1.0,89,0.00,,,0.00,weatherlink.com 1.10,2013-11-29 22:45:00,
2013-11-29 18:00:00,9.3,7.0,30.73,ENE,68,0.0,1.0,90,0.00,,,0.00,weatherlink.com 1.10,2013-11-29 23:00:00,
2013-11-29 18:15:00,8.9,7.0,30.73,ENE,68,0.0,1.0,90,0.00,,,0.00,weatherlink.com 1.10,2013-11-29 23:15:00,
2013-11-29 18:30:00,8.8,7.0,30.73,ENE,68,0.0,0.0,90,0.00,,,0.00,weatherlink.com 1.10,2013-11-29 23:30:00,
2013-11-29 18:46:00,8.6,6.0,30.74,ENE,69,0.0,1.0,90,0.00,,,0.00,weatherlink.com 1.10,2013-11-29 23:46:00,
2013-11-29 19:01:00,8.4,6.0,30.74,ENE,68,0.0,1.0,90,0.00,,,0.00,weatherlink.com 1.10,2013-11-30 00:01:00,
2013-11-29 19:16:00,8.5,6.0,30.75,ENE,67,0.0,0.0,91,0.00,,,0.00,weatherlink.com 1.10,2013-11-30 00:16:00,
2013-11-29 19:31:00,8.4,6.0,30.75,ENE,67,0.0,0.0,91,0.00,,,0.00,weatherlink.com 1.10,2013-11-30 00:31:00,
2013-11-29 19:46:00,8.4,6.0,30.75,ENE,67,0.0,0.0,91,0.00,,,0.00,weatherlink.com 1.10,2013-11-30 00:46:00,
2013-11-29 20:01:00,8.7,7.0,30.75,ENE,67,0.0,1.0,91,0.00,,,0.00,weatherlink.com 1.10,2013-11-30 01:01:00,
2013-11-29 20:16:00,8.7,7.0,30.75,ENE,64,0.0,1.0,91,0.00,,,0.00,weatherlink.com 1.10,2013-11-30 01:16:00,
2013-11-29 20:31:00,8.6,6.0,30.76,ENE,57,1.0,1.0,90,0.00,,,0.00,weatherlink.com 1.10,2013-11-30 01:31:00,
2013-11-29 20:46:00,8.6,7.0,30.76,NE,49,0.0,1.0,91,0.00,,,0.00,weatherlink.com 1.10,2013-11-30 01:46:00,
2013-11-29 21:01:00,8.3,6.0,30.77,NE,49,0.0,1.0,90,0.00,,,0.00,weatherlink.com 1.10,2013-11-30 02:01:00,
2013-11-29 21:16:00,8.4,6.0,30.77,NE,50,1.0,1.0,91,0.00,,,0.00,weatherlink.com 1.10,2013-11-30 02:16:00,
2013-11-29 21:31:00,8.3,6.0,30.77,NE,49,0.0,2.0,91,0.00,,,0.00,weatherlink.com 1.10,2013-11-30 02:31:00,
2013-11-29 21:46:00,8.1,6.0,30.77,NE,49,0.0,0.0,90,0.00,,,0.00,weatherlink.com 1.10,2013-11-30 02:46:00,
2013-11-29 22:01:00,8.4,6.0,30.78,NE,48,0.0,0.0,91,0.00,,,0.00,weatherlink.com 1.10,2013-11-30 03:01:00,
2013-11-29 22:16:00,8.9,7.0,30.78,NE,48,0.0,0.0,91,0.00,,,0.00,weatherlink.com 1.10,2013-11-30 03:16:00,
2013-11-29 22:31:00,8.5,6.0,30.78,NE,49,0.0,0.0,90,0.00,,,0.00,weatherlink.com 1.10,2013-11-30 03:31:00,
2013-11-29 22:46:00,8.2,6.0,30.79,NE,49,0.0,0.0,90,0.00,,,0.00,weatherlink.com 1.10,2013-11-30 03:46:00,
2013-11-29 23:01:00,8.1,6.0,30.79,NE,49,0.0,0.0,89,0.00,,,0.00,weatherlink.com 1.10,2013-11-30 04:01:00,
2013-11-29 23:16:00,7.7,5.0,30.79,NE,48,1.0,1.0,90,0.00,,,0.00,weatherlink.com 1.10,2013-11-30 04:16:00,
2013-11-29 23:31:00,8.1,6.0,30.79,NE,49,0.0,0.0,91,0.00,,,0.00,weatherlink.com 1.10,2013-11-30 04:31:00,
2013-11-29 23:46:00,7.9,5.0,30.79,NE,48,0.0,1.0,89,0.00,,,0.00,weatherlink.com 1.10,2013-11-30 04:46:00,